Time;durP1;ratioP1;P1;durP2;ratioP2;P2;SDS_P1;SDS_P2;PMS_P1;PMS_P2;Temp;Humidity;BMP_temperature;BMP_pressure;BME280_temperature;BME280_humidity;BME280_pressure;Samples;Min_cycle;Max_cycle;Signal;HPM_P1;HPM_P2
2024/01/12 00:00:33;;;;;;;14.68;9.25;;;;;;;0.41;100.00;101883.19;5031502;28;20050;-71
2024/01/12 00:03:05;;;;;;;13.80;8.57;;;;;;;0.46;100.00;101886.78;5019506;28;20059;-71
2024/01/12 00:05:35;;;;;;;15.20;8.63;;;;;;;0.49;100.00;101889.41;5048178;28;20572;-72
2024/01/12 00:08:04;;;;;;;12.27;7.75;;;;;;;0.53;100.00;101888.63;5032494;28;20069;-71
2024/01/12 00:10:33;;;;;;;9.88;7.03;;;;;;;0.54;100.00;101885.16;5028785;28;20076;-71
2024/01/12 00:13:08;;;;;;;12.00;7.50;;;;;;;0.52;100.00;101872.09;5029806;28;20052;-71
2024/01/12 00:15:36;;;;;;;11.35;6.57;;;;;;;0.57;100.00;101874.78;5033726;28;20060;-70
2024/01/12 00:18:05;;;;;;;9.98;6.60;;;;;;;0.58;100.00;101876.56;5037639;28;20033;-71
2024/01/12 00:20:42;;;;;;;11.88;6.40;;;;;;;0.64;100.00;101881.84;5032239;28;20033;-71
2024/01/12 00:23:12;;;;;;;11.02;6.75;;;;;;;0.60;100.00;101893.09;5010747;28;20049;-71
2024/01/12 00:25:43;;;;;;;9.63;6.05;;;;;;;0.65;100.00;101891.44;5045057;28;20049;-71
2024/01/12 00:28:11;;;;;;;10.00;6.25;;;;;;;0.68;100.00;101886.28;5032129;28;20041;-71
2024/01/12 00:30:45;;;;;;;11.52;6.80;;;;;;;0.67;100.00;101889.72;5031006;28;20038;-69
2024/01/12 00:33:13;;;;;;;10.65;6.57;;;;;;;0.46;100.00;101863.31;5022490;28;20060;-71
2024/01/12 00:35:51;;;;;;;10.82;6.60;;;;;;;0.70;100.00;101887.19;5025995;28;20060;-70
2024/01/12 00:38:20;;;;;;;11.68;6.65;;;;;;;0.74;100.00;101891.59;5051556;28;20059;-72
2024/01/12 00:40:50;;;;;;;10.23;6.97;;;;;;;0.74;100.00;101890.72;5046256;28;20518;-72
2024/01/12 00:43:18;;;;;;;11.30;6.60;;;;;;;0.75;100.00;101889.88;5035457;28;20048;-71
2024/01/12 00:45:46;;;;;;;11.23;7.10;;;;;;;0.77;100.00;101896.00;5032728;28;20048;-71
2024/01/12 00:48:16;;;;;;;9.55;6.72;;;;;;;0.75;100.00;101889.88;5049310;28;20205;-70
2024/01/12 00:50:47;;;;;;;13.27;7.28;;;;;;;0.73;100.00;101902.00;5028447;28;20049;-71
2024/01/12 00:53:15;;;;;;;;;;;;;;;0.80;100.00;101904.72;5028398;28;20045;-70
2024/01/12 00:55:44;;;;;;;11.15;6.75;;;;;;;0.79;100.00;101896.91;5033261;28;20428;-71
2024/01/12 00:58:13;;;;;;;11.18;6.80;;;;;;;0.80;100.00;101899.50;5031409;28;20048;-70
2024/01/12 01:00:42;;;;;;;12.38;7.32;;;;;;;0.81;100.00;101909.09;5044968;28;20572;-70
2024/01/12 01:03:10;;;;;;;11.48;6.90;;;;;;;0.79;100.00;101916.00;5033713;28;20057;-70
2024/01/12 01:05:40;;;;;;;11.50;7.35;;;;;;;0.80;100.00;101906.47;5026452;28;20033;-72
2024/01/12 01:08:10;;;;;;;;;;;;;;;0.82;100.00;101916.06;5033168;28;20132;-72
2024/01/12 01:10:38;;;;;;;9.65;6.38;;;;;;;0.83;100.00;101914.34;5028403;28;19932;-71
2024/01/12 01:13:07;;;;;;;12.23;7.32;;;;;;;0.83;100.00;101906.50;5019844;28;20042;-70
2024/01/12 01:15:36;;;;;;;13.55;7.35;;;;;;;0.78;100.00;101903.84;5043735;28;20064;-71
2024/01/12 01:18:05;;;;;;;13.68;7.40;;;;;;;0.77;100.00;101898.59;5023714;28;20052;-72
2024/01/12 01:20:35;;;;;;;15.83;8.10;;;;;;;0.80;100.00;101909.94;5031163;28;20502;-73
2024/01/12 01:23:03;;;;;;;12.68;7.85;;;;;;;0.76;100.00;101909.88;5033257;28;21802;-71
2024/01/12 01:25:33;;;;;;;12.82;7.55;;;;;;;0.68;100.00;101894.09;5045745;28;20114;-71
2024/01/12 01:28:02;;;;;;;12.88;7.93;;;;;;;0.81;100.00;101913.44;5023910;28;20045;-71
2024/01/12 01:30:31;;;;;;;12.15;7.60;;;;;;;0.80;100.00;101906.47;5038664;28;20043;-71
2024/01/12 01:33:00;;;;;;;11.65;7.40;;;;;;;0.80;100.00;101920.38;5025249;28;20037;-70
2024/01/12 01:35:30;;;;;;;12.10;8.07;;;;;;;0.80;100.00;101915.16;5040888;28;20092;-71
2024/01/12 01:38:00;;;;;;;10.40;6.93;;;;;;;0.80;100.00;101917.75;5029054;28;20412;-72
2024/01/12 01:40:28;;;;;;;10.88;7.13;;;;;;;0.84;100.00;101921.31;5044731;28;20045;-71
2024/01/12 01:42:57;;;;;;;11.95;7.95;;;;;;;0.92;100.00;101912.78;5028685;28;20146;-71
2024/01/12 01:45:26;;;;;;;12.77;7.30;;;;;;;0.86;100.00;101907.44;5026244;28;20049;-70
2024/01/12 01:47:59;;;;;;;10.38;7.28;;;;;;;0.86;100.00;101914.41;5027072;28;20054;-70
2024/01/12 01:50:29;;;;;;;12.15;7.25;;;;;;;0.85;100.00;101903.09;5032203;28;20041;-74
2024/01/12 01:52:57;;;;;;;12.52;7.97;;;;;;;0.86;100.00;101910.06;5022830;28;20132;-72
2024/01/12 01:55:31;;;;;;;12.50;7.88;;;;;;;0.86;100.00;101917.88;5025114;28;20045;-72
2024/01/12 01:58:04;;;;;;;13.50;7.30;;;;;;;0.80;100.00;101901.25;5037906;28;20041;-70
2024/01/12 02:00:34;;;;;;;12.90;7.85;;;;;;;0.84;100.00;101905.66;5045198;28;20057;-69
2024/01/12 02:03:04;;;;;;;13.25;7.97;;;;;;;0.89;100.00;101909.25;5027543;28;20042;-71
2024/01/12 02:05:36;;;;;;;13.93;8.52;;;;;;;0.88;100.00;101915.31;5042265;28;20052;-71
2024/01/12 02:08:04;;;;;;;14.27;7.78;;;;;;;0.85;100.00;101908.31;5041636;28;20049;-72
2024/01/12 02:10:33;;;;;;;11.32;7.68;;;;;;;0.88;100.00;101908.34;5031569;28;20603;-70
2024/01/12 02:13:04;;;;;;;11.38;7.53;;;;;;;0.88;100.00;101908.34;5020691;28;20060;-71
2024/01/12 02:15:32;;;;;;;13.33;8.20;;;;;;;0.80;100.00;101894.31;5042882;28;20052;-71
2024/01/12 02:18:00;;;;;;;13.00;8.18;;;;;;;0.87;100.00;101911.81;5028714;28;20068;-71
2024/01/12 02:20:30;;;;;;;13.23;8.45;;;;;;;0.87;100.00;101895.28;5030226;28;20044;-72
2024/01/12 02:23:01;;;;;;;13.55;8.25;;;;;;;0.93;100.00;101906.72;5020404;28;20107;-72
2024/01/12 02:25:31;;;;;;;14.77;9.23;;;;;;;0.91;100.00;101908.41;5026883;28;20123;-70
2024/01/12 02:27:59;;;;;;;14.05;8.05;;;;;;;0.87;100.00;101904.00;5029168;28;20793;-70
2024/01/12 02:30:27;;;;;;;13.80;8.48;;;;;;;0.88;100.00;101903.16;5049035;28;20041;-72
2024/01/12 02:32:58;;;;;;;13.77;8.60;;;;;;;0.78;100.00;101890.81;5034037;28;20131;-73
2024/01/12 02:35:29;;;;;;;15.00;9.23;;;;;;;0.87;100.00;101906.59;5019195;28;20045;-71
2024/01/12 02:38:01;;;;;;;14.32;8.70;;;;;;;0.87;100.00;101911.81;5027855;28;20565;-71
2024/01/12 02:40:29;;;;;;;17.13;9.70;;;;;;;0.88;100.00;101902.25;5028722;28;20072;-70
2024/01/12 02:43:01;;;;;;;14.80;9.18;;;;;;;0.89;100.00;101897.06;5029029;28;20072;-72
2024/01/12 02:45:30;;;;;;;;;;;;;;;0.89;100.00;101898.81;5026673;28;20430;-71
2024/01/12 02:48:01;;;;;;;16.17;9.05;;;;;;;0.88;100.00;101899.66;5032816;28;19924;-70
2024/01/12 02:50:31;;;;;;;14.30;8.82;;;;;;;0.88;100.00;101894.44;5014545;28;20045;-71
2024/01/12 02:53:03;;;;;;;15.30;9.60;;;;;;;0.86;100.00;101897.03;5048634;28;20074;-71
2024/01/12 02:55:32;;;;;;;16.00;9.73;;;;;;;0.88;100.00;101897.03;5022980;28;20044;-71
2024/01/12 02:58:00;;;;;;;15.40;9.32;;;;;;;0.89;100.00;101904.91;5018407;28;20128;-71
2024/01/12 03:00:30;;;;;;;14.82;9.65;;;;;;;0.82;100.00;101886.50;5035464;28;20091;-71
2024/01/12 03:03:00;;;;;;;16.10;10.25;;;;;;;0.88;100.00;101891.84;5030150;28;20071;-70
2024/01/12 03:05:29;;;;;;;14.88;9.27;;;;;;;0.87;100.00;101893.56;5042018;28;20041;-70
2024/01/12 03:07:58;;;;;;;17.50;10.30;;;;;;;0.85;100.00;101895.25;5044197;28;20034;-70
2024/01/12 03:10:27;;;;;;;16.60;9.68;;;;;;;0.86;100.00;101890.94;5029149;28;20037;-71
2024/01/12 03:12:55;;;;;;;16.88;10.07;;;;;;;0.80;100.00;101883.88;5017499;28;20455;-72
2024/01/12 03:15:23;;;;;;;16.48;10.10;;;;;;;0.86;100.00;101902.25;5039492;28;20068;-71
2024/01/12 03:17:54;;;;;;;19.08;10.57;;;;;;;0.86;100.00;101897.03;5039564;28;20046;-70
2024/01/12 03:20:23;;;;;;;;;;;;;;;0.84;100.00;101901.31;5012989;28;20041;-70
2024/01/12 03:22:53;;;;;;;18.23;10.18;;;;;;;0.83;100.00;101883.94;5030791;28;19928;-71
2024/01/12 03:25:21;;;;;;;18.23;9.90;;;;;;;0.89;100.00;101894.47;5040476;28;20475;-72
2024/01/12 03:27:51;;;;;;;17.25;10.43;;;;;;;0.80;100.00;101885.59;5025086;28;20056;-73
2024/01/12 03:30:20;;;;;;;17.98;10.50;;;;;;;0.87;100.00;101897.91;5045315;28;20046;-70
2024/01/12 03:32:50;;;;;;;17.15;9.88;;;;;;;0.87;100.00;101890.94;5043466;28;20037;-71
2024/01/12 03:35:17;;;;;;;18.97;10.97;;;;;;;0.92;100.00;101904.06;5027047;28;20052;-71
2024/01/12 03:37:47;;;;;;;18.20;10.85;;;;;;;0.89;100.00;101898.81;5047788;28;20045;-72
2024/01/12 03:40:18;;;;;;;17.70;10.98;;;;;;;0.84;100.00;101893.50;5028452;28;20060;-71
2024/01/12 03:42:51;;;;;;;20.30;11.25;;;;;;;0.88;100.00;101897.03;5030180;28;20049;-71
2024/01/12 03:45:20;;;;;;;20.30;11.10;;;;;;;0.82;100.00;101892.59;5036192;28;20045;-70
2024/01/12 03:47:50;;;;;;;18.13;11.18;;;;;;;0.81;100.00;101888.22;5047352;28;20050;-71
2024/01/12 03:50:20;;;;;;;19.35;11.05;;;;;;;0.78;100.00;101893.44;5046693;28;20042;-70
2024/01/12 03:52:49;;;;;;;17.35;10.80;;;;;;;0.83;100.00;101903.91;5032254;28;20443;-72
2024/01/12 03:55:17;;;;;;;16.85;9.65;;;;;;;0.82;100.00;101902.16;5021816;28;20111;-71
2024/01/12 03:57:45;;;;;;;16.70;10.40;;;;;;;0.79;100.00;101897.75;5029426;28;20073;-72
2024/01/12 04:00:16;;;;;;;15.98;10.10;;;;;;;0.78;100.00;101903.84;5024937;28;20037;-71
2024/01/12 04:02:46;;;;;;;16.50;10.65;;;;;;;0.74;100.00;101889.00;5050316;28;20069;-69
2024/01/12 04:05:15;;;;;;;16.13;9.75;;;;;;;0.78;100.00;101900.38;5022594;28;20139;-72
2024/01/12 04:07:43;;;;;;;18.30;10.90;;;;;;;0.76;100.00;101899.47;5032729;28;20077;-71
2024/01/12 04:10:15;;;;;;;18.30;11.23;;;;;;;0.72;100.00;101892.44;5027872;28;20042;-72
2024/01/12 04:12:47;;;;;;;19.02;10.90;;;;;;;0.74;100.00;101904.66;5030639;28;20065;-72
2024/01/12 04:15:17;;;;;;;19.80;11.10;;;;;;;0.76;100.00;101905.56;5006115;28;20044;-72
2024/01/12 04:17:45;;;;;;;17.58;10.88;;;;;;;0.78;100.00;101911.69;5032895;28;20179;-71
2024/01/12 04:20:14;;;;;;;17.80;11.35;;;;;;;0.74;100.00;101907.25;5027550;28;20525;-71
2024/01/12 04:22:42;;;;;;;18.60;11.35;;;;;;;0.76;100.00;101907.28;5043512;28;20061;-72
2024/01/12 04:25:11;;;;;;;18.98;11.05;;;;;;;0.76;100.00;101913.38;4997305;28;20048;-72
2024/01/12 04:27:47;;;;;;;18.27;11.25;;;;;;;0.78;100.00;101908.19;5012449;28;20049;-72
2024/01/12 04:30:17;;;;;;;18.88;11.18;;;;;;;0.76;100.00;101910.78;5042707;28;20518;-72
2024/01/12 04:32:45;;;;;;;20.10;11.65;;;;;;;0.75;100.00;101906.41;5021864;28;20045;-72
2024/01/12 04:35:17;;;;;;;19.55;11.45;;;;;;;0.78;100.00;101897.75;5000608;28;20128;-71
2024/01/12 04:37:45;;;;;;;18.02;10.93;;;;;;;0.77;100.00;101889.06;5032398;28;20137;-73
2024/01/12 04:40:14;;;;;;;16.95;10.57;;;;;;;0.80;100.00;101888.19;5012587;28;20038;-71
2024/01/12 04:42:43;;;;;;;17.70;11.45;;;;;;;0.82;100.00;101894.31;5029367;28;20064;-72
2024/01/12 04:45:11;;;;;;;16.92;10.45;;;;;;;0.82;100.00;101896.94;5024563;28;20047;-72
2024/01/12 04:47:45;;;;;;;16.70;10.70;;;;;;;0.77;100.00;101911.66;5027887;28;20091;-71
2024/01/12 04:50:13;;;;;;;18.73;10.93;;;;;;;0.76;100.00;101913.38;5026755;28;20652;-71
2024/01/12 04:52:43;;;;;;;17.23;10.70;;;;;;;0.73;100.00;101915.03;5049483;28;20050;-73
2024/01/12 04:55:15;;;;;;;18.58;11.32;;;;;;;0.73;100.00;101915.03;5016068;28;20038;-73
2024/01/12 04:57:44;;;;;;;17.50;11.23;;;;;;;0.72;100.00;101911.56;5030501;28;20422;-71
2024/01/12 05:00:13;;;;;;;18.33;11.52;;;;;;;0.53;100.00;101883.41;5042889;28;20087;-73
2024/01/12 05:02:41;;;;;;;20.20;11.82;;;;;;;0.73;100.00;101907.22;5023149;28;20041;-71
2024/01/12 05:05:11;;;;;;;17.02;11.57;;;;;;;0.70;100.00;101905.44;5023490;28;20041;-71
2024/01/12 05:07:42;;;;;;;19.58;12.50;;;;;;;0.74;100.00;101904.66;5014160;28;20038;-72
2024/01/12 05:10:12;;;;;;;16.30;10.48;;;;;;;0.78;100.00;101910.78;5032655;28;20124;-71
2024/01/12 05:12:41;;;;;;;16.95;10.98;;;;;;;0.69;100.00;101899.34;5013743;28;20048;-70
2024/01/12 05:15:10;;;;;;;17.27;10.73;;;;;;;0.76;100.00;101909.88;5020735;28;20053;-72
2024/01/12 05:17:40;;;;;;;12.15;7.53;;;;;;;0.70;100.00;101898.50;5036940;28;20053;-70
2024/01/12 05:20:10;;;;;;;17.55;11.07;;;;;;;0.77;100.00;101906.44;5028957;28;20052;-70
2024/01/12 05:22:39;;;;;;;13.75;9.40;;;;;;;0.76;100.00;101902.94;5046742;28;20055;-70
2024/01/12 05:25:08;;;;;;;13.75;8.85;;;;;;;0.77;100.00;101902.09;5038854;28;20048;-72
2024/01/12 05:27:36;;;;;;;13.32;9.00;;;;;;;0.75;100.00;101890.75;5044548;28;20043;-72
2024/01/12 05:30:05;;;;;;;14.80;9.57;;;;;;;0.78;100.00;101889.94;5041807;28;20590;-72
2024/01/12 05:32:34;;;;;;;13.93;9.48;;;;;;;0.78;100.00;101888.22;5031980;28;20082;-71
2024/01/12 05:35:02;;;;;;;13.98;9.30;;;;;;;0.77;100.00;101886.44;5034023;28;20060;-71
2024/01/12 05:37:31;;;;;;;15.05;10.00;;;;;;;0.75;100.00;101884.66;5035702;28;20091;-72
2024/01/12 05:40:00;;;;;;;16.00;10.18;;;;;;;0.74;100.00;101878.56;5033198;28;20038;-72
2024/01/12 05:42:36;;;;;;;16.20;10.63;;;;;;;0.69;100.00;101868.06;5029948;28;20065;-73
2024/01/12 05:45:05;;;;;;;13.80;9.35;;;;;;;0.76;100.00;101884.69;5027784;28;20042;-72
2024/01/12 05:47:40;;;;;;;13.77;9.00;;;;;;;0.80;100.00;101875.16;5053873;28;20518;-73
2024/01/12 05:50:11;;;;;;;14.13;9.90;;;;;;;0.80;100.00;101877.78;5036885;28;20041;-71
2024/01/12 05:52:40;;;;;;;15.07;10.32;;;;;;;0.84;100.00;101869.16;5039938;28;20097;-74
2024/01/12 05:55:10;;;;;;;13.95;9.55;;;;;;;0.85;100.00;101863.09;5030773;28;20041;-70
2024/01/12 05:57:38;;;;;;;15.70;9.63;;;;;;;0.83;100.00;101860.44;5058497;28;20061;-71
2024/01/12 06:00:09;;;;;;;14.93;9.10;;;;;;;0.76;100.00;101858.63;5006988;28;20118;-70
2024/01/12 06:02:38;;;;;;;15.00;9.32;;;;;;;0.81;100.00;101869.97;5040059;28;20048;-73
2024/01/12 06:05:08;;;;;;;14.32;9.00;;;;;;;0.77;100.00;101864.72;5018324;28;20042;-71
2024/01/12 06:07:37;;;;;;;15.25;9.95;;;;;;;0.78;100.00;101875.16;5031768;28;20041;-71
2024/01/12 06:10:24;;;;;;;15.02;9.85;;;;;;;0.82;100.00;101892.59;5012242;28;20057;-71
2024/01/12 06:12:53;;;;;;;14.65;10.10;;;;;;;0.81;100.00;101887.34;5036311;28;20526;-72
2024/01/12 06:15:28;;;;;;;13.98;9.35;;;;;;;0.83;100.00;101893.47;5024344;28;20053;-73
2024/01/12 06:17:57;;;;;;;11.93;8.50;;;;;;;0.77;100.00;101881.25;5027450;28;20050;-71
2024/01/12 06:20:27;;;;;;;14.07;9.25;;;;;;;0.84;100.00;101890.03;5024896;28;20069;-71
2024/01/12 06:22:56;;;;;;;11.77;8.98;;;;;;;0.85;100.00;101902.22;5039078;28;20045;-71
2024/01/12 06:25:27;;;;;;;12.52;8.30;;;;;;;0.83;100.00;101896.97;5023740;28;20129;-71
2024/01/12 06:28:00;;;;;;;12.98;9.30;;;;;;;0.81;100.00;101901.28;5030637;28;20112;-70
2024/01/12 06:30:31;;;;;;;11.77;8.48;;;;;;;0.73;100.00;101887.25;5018142;28;20046;-74
2024/01/12 06:33:03;;;;;;;13.60;9.50;;;;;;;0.76;100.00;101897.72;5015275;28;20124;-73
2024/01/12 06:35:35;;;;;;;12.45;8.32;;;;;;;0.76;100.00;101902.06;5023700;28;20710;-72
2024/01/12 06:38:04;;;;;;;13.63;8.88;;;;;;;0.75;100.00;101900.31;4994931;28;20036;-71
2024/01/12 06:40:33;;;;;;;13.82;9.13;;;;;;;0.72;100.00;101902.84;5013729;28;20132;-72
2024/01/12 06:43:02;;;;;;;15.13;9.77;;;;;;;0.71;100.00;101909.81;5039122;28;20056;-71
2024/01/12 06:45:31;;;;;;;15.00;9.95;;;;;;;0.76;100.00;101931.63;5033666;28;20053;-72
2024/01/12 06:48:06;;;;;;;14.20;9.85;;;;;;;0.69;100.00;101914.97;5034958;28;20660;-73
2024/01/12 06:50:37;;;;;;;13.88;10.00;;;;;;;0.67;100.00;101913.19;5043456;28;20060;-73
2024/01/12 06:53:08;;;;;;;;;;;;;;;0.72;100.00;101914.16;5036411;28;20107;-72
2024/01/12 06:55:38;;;;;;;15.00;10.25;;;;;;;0.70;100.00;101908.03;5038809;28;19937;-71
2024/01/12 06:58:08;;;;;;;14.07;9.63;;;;;;;0.81;100.00;101927.34;5046164;28;20425;-72
2024/01/12 07:00:37;;;;;;;10.48;7.70;;;;;;;0.77;100.00;101928.16;5014484;28;20140;-71
2024/01/12 07:03:06;;;;;;;16.58;10.90;;;;;;;0.72;100.00;101923.72;5022278;28;20077;-72
2024/01/12 07:05:34;;;;;;;15.32;11.18;;;;;;;0.68;100.00;101920.16;5039207;28;20037;-72
2024/01/12 07:08:05;;;;;;;17.02;11.48;;;;;;;0.76;100.00;101936.84;5026464;28;20251;-72
2024/01/12 07:10:34;;;;;;;16.98;11.57;;;;;;;0.77;100.00;101935.13;5028371;28;20040;-71
2024/01/12 07:13:04;;;;;;;18.35;11.88;;;;;;;0.72;100.00;101927.19;5029525;28;20052;-74
2024/01/12 07:15:33;;;;;;;20.17;11.07;;;;;;;0.76;100.00;101934.22;5038140;28;20046;-71
2024/01/12 07:18:03;;;;;;;18.70;10.95;;;;;;;0.78;100.00;101935.16;5031787;28;20379;-71
2024/01/12 07:20:33;;;;;;;16.17;11.13;;;;;;;0.81;100.00;101949.94;5026844;28;20041;-73
2024/01/12 07:23:01;;;;;;;17.25;11.50;;;;;;;0.77;100.00;101937.72;5033705;28;20041;-71
2024/01/12 07:25:33;;;;;;;15.65;10.57;;;;;;;0.78;100.00;101939.47;5025964;28;20071;-71
2024/01/12 07:28:04;;;;;;;15.80;11.13;;;;;;;0.64;100.00;101918.34;5030162;28;20049;-72
2024/01/12 07:30:33;;;;;;;16.83;11.13;;;;;;;0.77;100.00;101946.41;5043657;28;20041;-71
2024/01/12 07:33:04;;;;;;;15.98;10.32;;;;;;;0.81;100.00;101962.97;5025498;28;20075;-75
2024/01/12 07:35:33;;;;;;;17.30;11.23;;;;;;;0.78;100.00;101955.13;5007282;28;20038;-71
2024/01/12 07:38:05;;;;;;;17.52;11.52;;;;;;;0.71;100.00;101961.94;5011610;28;20051;-70
2024/01/12 07:40:33;;;;;;;20.00;12.82;;;;;;;0.69;100.00;101950.59;5034344;28;20044;-71
2024/01/12 07:43:05;;;;;;;18.20;11.77;;;;;;;0.76;100.00;101956.81;5008286;28;20041;-72
2024/01/12 07:45:33;;;;;;;;;;;;;;;0.74;100.00;101950.69;5046191;28;20561;-72
2024/01/12 07:48:05;;;;;;;17.80;11.07;;;;;;;0.60;100.00;101934.81;5019629;28;19928;-71
2024/01/12 07:50:33;;;;;;;19.13;11.90;;;;;;;0.70;100.00;101952.38;5037398;28;20045;-72
2024/01/12 07:53:04;;;;;;;17.55;11.35;;;;;;;0.64;100.00;101942.69;5041332;28;20136;-73
2024/01/12 07:55:32;;;;;;;18.77;12.40;;;;;;;0.72;100.00;101957.59;5043020;28;20056;-71
2024/01/12 07:58:00;;;;;;;16.88;12.13;;;;;;;0.72;100.00;101948.06;5038277;28;20042;-72
2024/01/12 08:00:30;;;;;;;19.90;12.55;;;;;;;0.78;100.00;101952.53;5032319;28;20052;-72
2024/01/12 08:02:58;;;;;;;19.30;12.57;;;;;;;0.78;100.00;101942.97;5020128;28;20083;-72
2024/01/12 08:05:28;;;;;;;18.85;12.07;;;;;;;0.77;100.00;101951.63;5031415;28;20041;-73
2024/01/12 08:08:01;;;;;;;17.25;11.38;;;;;;;0.74;100.00;101951.56;5035811;28;20045;-71
2024/01/12 08:10:29;;;;;;;19.70;11.90;;;;;;;0.76;100.00;101959.44;5017393;28;20132;-72
2024/01/12 08:12:59;;;;;;;17.40;11.25;;;;;;;0.74;100.00;101954.19;5028174;28;20109;-72
2024/01/12 08:15:32;;;;;;;18.15;12.30;;;;;;;0.77;100.00;101963.78;5050832;28;20056;-74
2024/01/12 08:18:00;;;;;;;19.38;11.88;;;;;;;0.80;100.00;101950.78;5035046;28;20045;-73
2024/01/12 08:20:28;;;;;;;20.05;12.05;;;;;;;0.80;100.00;101945.56;5038196;28;20054;-73
2024/01/12 08:22:57;;;;;;;18.58;12.15;;;;;;;0.76;100.00;101942.06;5041429;28;20049;-71
2024/01/12 08:25:26;;;;;;;21.98;13.07;;;;;;;0.80;100.00;101956.00;5046820;28;20037;-71
2024/01/12 08:27:57;;;;;;;18.50;12.30;;;;;;;0.76;100.00;101951.59;5033511;28;20108;-73
2024/01/12 08:30:25;;;;;;;17.10;11.35;;;;;;;0.75;100.00;101962.88;5033830;28;20041;-71
2024/01/12 08:32:56;;;;;;;17.67;11.80;;;;;;;0.74;100.00;101963.72;5035432;28;20137;-73
2024/01/12 08:35:25;;;;;;;15.45;10.35;;;;;;;0.75;100.00;101965.50;5044026;28;20069;-71
2024/01/12 08:37:55;;;;;;;17.20;11.55;;;;;;;0.70;100.00;101961.06;5035865;28;20049;-72
2024/01/12 08:40:24;;;;;;;17.60;11.88;;;;;;;0.73;100.00;101970.69;5031677;28;20164;-72
2024/01/12 08:42:53;;;;;;;19.25;11.95;;;;;;;0.77;100.00;101966.41;5045038;28;20049;-72
2024/01/12 08:45:21;;;;;;;17.43;11.63;;;;;;;0.79;100.00;101969.91;5025305;28;20084;-70
2024/01/12 08:47:50;;;;;;;17.90;12.25;;;;;;;0.81;100.00;101973.41;5033042;28;20543;-72
2024/01/12 08:50:22;;;;;;;18.60;12.63;;;;;;;0.77;100.00;101964.69;5030967;28;20052;-73
2024/01/12 08:52:51;;;;;;;19.02;12.50;;;;;;;0.81;100.00;101979.50;5024143;28;20294;-72
2024/01/12 08:55:20;;;;;;;19.50;12.55;;;;;;;0.76;100.00;101970.75;5031873;28;20042;-72
2024/01/12 08:57:50;;;;;;;18.13;12.10;;;;;;;0.80;100.00;101976.84;5015021;28;20136;-72
2024/01/12 09:00:23;;;;;;;17.25;11.55;;;;;;;0.77;100.00;101982.03;5024362;28;20057;-72
2024/01/12 09:02:52;;;;;;;19.23;13.68;;;;;;;0.74;100.00;101977.66;5045414;28;20041;-73
2024/01/12 09:05:24;;;;;;;20.83;14.00;;;;;;;0.74;100.00;101972.44;5012388;28;20136;-72
2024/01/12 09:07:53;;;;;;;21.90;13.65;;;;;;;0.74;100.00;101969.81;5028235;28;20495;-72
2024/01/12 09:10:21;;;;;;;21.70;13.80;;;;;;;0.79;100.00;101965.56;5034900;28;20056;-71
2024/01/12 09:12:51;;;;;;;21.10;13.57;;;;;;;0.78;100.00;101962.94;5007041;28;20060;-71
2024/01/12 09:15:20;;;;;;;22.02;13.40;;;;;;;0.78;100.00;101969.03;5041570;28;20049;-72
2024/01/12 09:17:50;;;;;;;23.90;14.45;;;;;;;0.80;100.00;101979.47;5038862;28;20582;-71
2024/01/12 09:20:19;;;;;;;22.38;14.07;;;;;;;0.83;100.00;101977.81;5031181;28;20037;-72
2024/01/12 09:22:52;;;;;;;20.15;13.23;;;;;;;0.85;100.00;101980.44;5017801;28;20049;-71
2024/01/12 09:25:19;;;;;;;20.02;12.55;;;;;;;0.75;100.00;101976.81;5045086;28;20109;-72
2024/01/12 09:27:50;;;;;;;17.83;12.25;;;;;;;0.78;100.00;101989.03;5045579;28;20072;-70
2024/01/12 09:30:18;;;;;;;19.42;13.00;;;;;;;0.77;100.00;101984.66;5027189;28;20038;-72
2024/01/12 09:32:47;;;;;;;17.58;12.20;;;;;;;0.81;100.00;101987.31;5041266;28;20117;-70
2024/01/12 09:35:15;;;;;;;18.00;12.30;;;;;;;0.84;100.00;101979.56;5026777;28;20044;-72
2024/01/12 09:37:44;;;;;;;19.70;13.52;;;;;;;0.84;100.00;101982.16;5030159;28;20045;-71
2024/01/12 09:40:15;;;;;;;20.30;13.70;;;;;;;0.82;100.00;101983.88;5019435;28;20417;-71
2024/01/12 09:42:50;;;;;;;19.05;12.75;;;;;;;0.81;100.00;101995.16;5022876;28;20504;-72
2024/01/12 09:45:24;;;;;;;19.20;12.95;;;;;;;0.75;100.00;101979.41;5040796;28;20416;-73
2024/01/12 09:47:53;;;;;;;19.45;12.95;;;;;;;0.82;100.00;101986.47;5023364;28;20057;-73
2024/01/12 09:50:23;;;;;;;18.27;12.02;;;;;;;0.85;100.00;101983.03;5001300;28;20171;-72
2024/01/12 09:52:53;;;;;;;19.25;13.02;;;;;;;0.83;100.00;101980.41;5021937;28;20060;-76
2024/01/12 09:55:28;;;;;;;19.58;12.40;;;;;;;0.79;100.00;101981.19;5044238;28;20042;-74
2024/01/12 09:57:56;;;;;;;19.45;12.52;;;;;;;0.76;100.00;101975.06;5046205;28;20101;-71
2024/01/12 10:00:29;;;;;;;19.27;12.70;;;;;;;0.75;100.00;101978.53;5029108;28;20392;-72
2024/01/12 10:02:58;;;;;;;21.05;13.55;;;;;;;0.65;100.00;101972.25;5023522;28;20076;-73
2024/01/12 10:05:27;;;;;;;18.35;12.32;;;;;;;0.76;100.00;101980.28;5041249;28;20046;-72
2024/01/12 10:07:59;;;;;;;28.30;17.17;;;;;;;0.74;100.00;101984.59;5022950;28;20072;-71
2024/01/12 10:10:29;;;;;;;20.33;12.68;;;;;;;0.69;100.00;101995.81;5024545;28;20060;-72
2024/01/12 10:12:57;;;;;;;18.63;12.25;;;;;;;0.62;100.00;101999.16;5029087;28;20050;-72
2024/01/12 10:15:29;;;;;;;20.55;12.82;;;;;;;0.60;100.00;101984.34;5031269;28;20037;-71
2024/01/12 10:18:01;;;;;;;18.70;12.45;;;;;;;0.69;100.00;101995.81;5035063;28;20052;-71
2024/01/12 10:20:37;;;;;;;18.77;12.05;;;;;;;0.76;100.00;101989.00;5035610;28;20046;-74
2024/01/12 10:23:09;;;;;;;20.85;13.27;;;;;;;0.78;100.00;101989.03;5012882;28;20044;-71
2024/01/12 10:25:38;;;;;;;21.08;12.95;;;;;;;0.77;100.00;101987.25;5035723;28;20873;-71
2024/01/12 10:28:18;;;;;;;21.50;13.70;;;;;;;0.76;100.00;101983.78;5053754;28;20079;-71
2024/01/12 10:30:49;;;;;;;23.63;13.25;;;;;;;0.75;100.00;101981.13;5018547;28;20046;-71
2024/01/12 10:33:19;;;;;;;21.55;12.52;;;;;;;0.72;100.00;101981.97;5030063;28;20033;-71
2024/01/12 10:35:55;;;;;;;23.42;12.90;;;;;;;0.68;100.00;101972.31;5035948;28;20057;-72
2024/01/12 10:38:25;;;;;;;23.00;13.25;;;;;;;0.74;100.00;101984.59;5021822;28;20046;-73
2024/01/12 10:40:59;;;;;;;21.60;12.73;;;;;;;0.74;100.00;101987.19;5019043;28;20114;-73
2024/01/12 10:43:30;;;;;;;23.17;12.90;;;;;;;0.69;100.00;101985.38;5030064;28;20052;-72
2024/01/12 10:46:05;;;;;;;21.08;12.05;;;;;;;0.64;100.00;101971.38;5007911;28;20410;-73
2024/01/12 10:48:41;;;;;;;24.13;12.93;;;;;;;0.58;100.00;101966.06;5036747;28;20056;-70
2024/01/12 10:51:14;;;;;;;22.08;12.50;;;;;;;0.63;100.00;101966.16;5050543;28;20073;-72
2024/01/12 10:53:53;;;;;;;21.33;12.30;;;;;;;0.59;100.00;101964.34;5048474;28;20056;-70
2024/01/12 10:56:25;;;;;;;20.83;12.13;;;;;;;0.59;100.00;101966.94;5039287;28;20059;-74
2024/01/12 10:58:54;;;;;;;25.98;13.80;;;;;;;0.59;100.00;101956.50;5042598;28;20079;-72
2024/01/12 11:01:24;;;;;;;23.25;13.18;;;;;;;0.58;100.00;101947.81;5049015;28;20108;-71
2024/01/12 11:03:54;;;;;;;25.63;13.38;;;;;;;0.52;100.00;101946.81;5008889;28;20054;-74
2024/01/12 11:06:29;;;;;;;25.98;14.05;;;;;;;0.58;100.00;101957.34;5028675;28;20053;-72
2024/01/12 11:08:57;;;;;;;;;;;;;;;0.68;100.00;101956.66;5039855;28;20045;-72
2024/01/12 11:11:37;;;;;;;23.45;11.85;;;;;;;0.73;100.00;101956.75;5047473;28;19929;-73
2024/01/12 11:14:10;;;;;;;19.67;10.85;;;;;;;0.75;100.00;101953.34;5047977;28;20057;-72
2024/01/12 11:16:38;;;;;;;17.90;10.82;;;;;;;0.76;100.00;101954.22;5016772;28;22109;-72
2024/01/12 11:19:13;;;;;;;18.98;10.90;;;;;;;0.70;100.00;101955.84;5033498;28;20076;-72
2024/01/12 11:21:42;;;;;;;16.95;10.07;;;;;;;0.70;100.00;101955.84;5047042;28;20049;-73
2024/01/12 11:24:11;;;;;;;17.63;10.13;;;;;;;0.64;100.00;101955.72;5041360;28;20115;-73
2024/01/12 11:26:44;;;;;;;17.45;9.73;;;;;;;0.60;100.00;101946.13;5035913;28;20105;-73